Louisvale, South Africa
Current Conditions -  °F | °C
As of 1:00 PM on Sunday 23 Nov 2014 (Local Time) from FAUP Reporting Station
Few Clouds Few Clouds  
Wind Chill: 88°   Ceiling: Unl
Heat Index: 88°   Visibility: 6mi
Dew Point: 41°   Wind: 9mph
Humidity: 19%   Direction: 300°WNW
Pressure: 29.97"   Gusts: NA
Location:  28.57°S, 21.2°E
Report Text: FAUP 231100Z 30008KT 9999 FEW050 31/05 Q1015 NOSIG
Loading
Personal Weather Stations






























Interactive Weather Map New forecast layout! Learn more

10-Day Weather Forecast

Advertisements
Track Severe Weather on mobile